vendredi 18 avril 2014

ALERTE SPOTTING 18/04/14

IL9 CU-T1250 Cubana
   CU440/CU441  09h15/11h15

744 EC-LNA Pullmantur Air
   AT640/AT643   13h55/16h00


E95 EC-LFZ Air Europa (sticker)
   UX1223/UX1020  10h45/11h35
   arv UX1002 22h25 (dpt 19/04 UX1022 07h10)

320 F-GHQE Air Corsica (blanc avec titre)
   XK4503/XK4502   11h50/12h55
  XK4505/XK4504   20h15/21h20

Manque les prévisions de : certains AB / AH / AZ / BA / BE / IB / KM / TP / TU
*** Heures en Local Time **
Prévisions matinales soumises à modifications de dernières minute.
 Voir le log du mois pour la version 'définitive' de la journée: 
 http://www.airkalo.com/ORLYAVIATION/Logdumois.html

le TAF de la journée:

METAR: LFPO 180300Z 35008KT 9999 SCT033 BKN100 12/06 Q1015 NOSIG=
TAF LONG: LFPO 172300Z 1800/1906 34005KT CAVOK TEMPO 1802/1809 BKN035
PROB30 TEMPO 1804/1808 BKN012 TEMPO 1813/1818 01012G22KT=